Time;durP1;ratioP1;P1;durP2;ratioP2;P2;SDS_P1;SDS_P2;PMS_P1;PMS_P2;Temp;Humidity;BMP_temperature;BMP_pressure;BME280_temperature;BME280_humidity;BME280_pressure;Samples;Min_cycle;Max_cycle;Signal;HPM_P1;HPM_P2
2022/04/16 00:00:25;;;;;;;;;;;;;;;;;;;;;
2022/04/16 00:25:07;;;;;;;2.90;2.70;;;9.70;99.90;;;;;;4691342;30;20247;-80
2022/04/16 00:49:11;;;;;;;3.70;1.97;;;9.60;99.90;;;;;;4812423;29;20545;-81
2022/04/16 00:51:39;;;;;;;2.38;1.85;;;9.50;99.90;;;;;;5031713;28;20455;-81
2022/04/16 00:54:06;;;;;;;2.75;2.55;;;9.50;99.90;;;;;;5039827;28;20231;-80
2022/04/16 00:56:33;;;;;;;2.80;2.60;;;9.50;99.90;;;;;;5030238;28;20210;-81
2022/04/16 00:59:02;;;;;;;2.60;2.40;;;9.40;99.90;;;;;;5020722;28;20230;-81
2022/04/16 01:01:28;;;;;;;2.50;2.30;;;9.50;99.90;;;;;;5029308;28;20222;-81
2022/04/16 01:03:55;;;;;;;2.80;2.50;;;9.40;99.90;;;;;;5029101;28;20230;-81
2022/04/16 01:06:23;;;;;;;2.65;2.45;;;9.40;99.90;;;;;;5039630;28;20207;-81
2022/04/16 01:08:51;;;;;;;2.85;2.65;;;9.40;99.90;;;;;;5036635;28;20226;-81
2022/04/16 01:11:18;;;;;;;2.03;1.92;;;9.40;99.90;;;;;;5039879;28;20201;-81
2022/04/16 01:13:46;;;;;;;2.55;2.35;;;9.40;99.90;;;;;;5024893;28;20226;-81
2022/04/16 01:16:12;;;;;;;2.23;2.07;;;9.40;99.90;;;;;;5020800;28;20707;-80
2022/04/16 01:18:46;;;;;;;1.92;1.83;;;9.30;99.90;;;;;;5033499;28;20458;-81
2022/04/16 01:21:13;;;;;;;2.43;2.23;;;9.40;99.90;;;;;;5039705;28;20224;-81
2022/04/16 01:23:41;;;;;;;2.70;2.50;;;9.40;99.90;;;;;;5026622;28;20861;-80
2022/04/16 01:26:08;;;;;;;2.22;2.03;;;9.30;99.90;;;;;;5021079;28;20208;-81
2022/04/16 01:28:35;;;;;;;2.80;2.60;;;9.40;99.90;;;;;;5021354;28;20214;-81
2022/04/16 01:31:01;;;;;;;2.58;2.13;;;9.40;99.90;;;;;;5024394;28;20199;-80
2022/04/16 01:33:30;;;;;;;2.58;2.38;;;9.40;99.90;;;;;;5039361;28;20228;-81
2022/04/16 01:35:56;;;;;;;3.20;2.63;;;9.40;99.90;;;;;;5035174;28;20200;-81
2022/04/16 01:38:25;;;;;;;2.97;2.78;;;9.40;99.90;;;;;;5019447;28;20218;-81
2022/04/16 01:40:54;;;;;;;2.60;2.40;;;9.40;99.90;;;;;;5021626;28;20230;-81
2022/04/16 01:43:21;;;;;;;2.50;2.30;;;9.30;99.90;;;;;;5038815;28;20230;-81
2022/04/16 01:45:49;;;;;;;2.83;2.63;;;9.30;99.90;;;;;;5037381;28;20213;-81
2022/04/16 01:48:16;;;;;;;3.40;3.20;;;9.30;99.90;;;;;;5019761;28;20624;-81
2022/04/16 01:50:43;;;;;;;3.10;2.80;;;9.20;99.90;;;;;;5019574;28;20625;-81
2022/04/16 01:53:10;;;;;;;2.63;2.42;;;9.20;99.90;;;;;;5038981;28;20223;-81
2022/04/16 01:55:37;;;;;;;2.72;2.53;;;9.20;99.90;;;;;;5039800;28;20220;-81
2022/04/16 01:58:06;;;;;;;2.78;2.58;;;9.30;99.90;;;;;;5020342;28;20213;-80
2022/04/16 02:00:33;;;;;;;2.72;2.53;;;9.30;99.90;;;;;;5034600;28;20203;-81
2022/04/16 03:11:53;;;;;;;3.58;3.20;;;8.10;99.90;;;;;;4911372;29;20693;-80
2022/04/16 03:36:07;;;;;;;3.20;3.00;;;7.70;99.90;;;;;;4768640;29;20210;-80
2022/04/16 04:42:22;;;;;;;5.53;5.03;;;8.60;99.90;;;;;;4784628;29;20272;-80
2022/04/16 04:44:49;;;;;;;4.40;4.00;;;8.70;99.90;;;;;;5072100;23;20231;-82
2022/04/16 04:47:15;;;;;;;4.00;3.70;;;8.80;99.90;;;;;;5047264;28;20202;-82
2022/04/16 04:49:42;;;;;;;4.15;3.80;;;8.80;99.90;;;;;;5047311;28;20707;-81
2022/04/16 04:52:09;;;;;;;3.40;3.20;;;8.90;99.90;;;;;;5045691;28;20203;-81
2022/04/16 04:54:37;;;;;;;4.65;4.03;;;9.00;99.90;;;;;;5044765;28;20224;-81
2022/04/16 04:57:04;;;;;;;3.60;3.05;;;8.90;99.90;;;;;;5047353;28;20222;-82
2022/04/16 04:59:31;;;;;;;3.90;3.47;;;9.00;99.90;;;;;;5044447;28;20204;-82
2022/04/16 05:01:57;;;;;;;3.65;3.45;;;8.90;99.90;;;;;;5046218;28;20227;-82
2022/04/16 05:04:24;;;;;;;4.70;3.60;;;8.80;99.90;;;;;;5039623;28;20225;-82
2022/04/16 05:06:50;;;;;;;3.60;3.30;;;8.80;99.90;;;;;;5028110;28;20207;-82
2022/04/16 05:09:17;;;;;;;3.53;3.22;;;8.70;99.90;;;;;;5044472;28;20206;-81
2022/04/16 05:11:45;;;;;;;3.50;3.20;;;8.70;99.90;;;;;;5032854;28;20208;-82
2022/04/16 05:14:12;;;;;;;4.55;3.75;;;8.70;99.90;;;;;;5025019;28;20230;-82
2022/04/16 05:16:38;;;;;;;3.70;3.40;;;8.70;99.90;;;;;;5024748;28;20207;-82
2022/04/16 05:19:05;;;;;;;3.13;2.92;;;8.80;99.90;;;;;;5024795;28;20218;-81
2022/04/16 05:21:32;;;;;;;4.22;3.78;;;8.90;99.90;;;;;;5038938;28;20199;-82
2022/04/16 05:23:58;;;;;;;4.22;3.92;;;8.90;99.90;;;;;;5046722;28;20226;-82
2022/04/16 05:26:25;;;;;;;4.10;3.70;;;8.80;99.90;;;;;;5031348;28;20199;-81
2022/04/16 05:28:53;;;;;;;4.23;3.93;;;8.80;99.90;;;;;;5023964;28;20220;-81
2022/04/16 05:31:24;;;;;;;3.60;3.30;;;8.90;99.90;;;;;;5025463;28;20456;-82
2022/04/16 05:36:35;;;;;;;4.25;3.85;;;9.20;99.90;;;;;;5027509;28;20232;-82
2022/04/16 05:39:01;;;;;;;5.05;3.85;;;9.40;99.90;;;;;;5032452;28;20783;-82
2022/04/16 05:41:28;;;;;;;4.15;3.75;;;9.50;99.90;;;;;;5046379;28;20204;-82
2022/04/16 05:46:39;;;;;;;4.50;4.03;;;9.80;99.90;;;;;;5017442;28;20442;-82
2022/04/16 05:49:05;;;;;;;3.40;3.10;;;10.00;99.90;;;;;;5055999;28;20212;-80
2022/04/16 05:51:32;;;;;;;3.45;3.15;;;10.00;99.90;;;;;;5052711;28;20228;-82
2022/04/16 05:54:03;;;;;;;3.88;3.58;;;10.10;99.90;;;;;;5043601;28;20224;-83
2022/04/16 05:56:30;;;;;;;4.17;3.80;;;10.20;99.90;;;;;;5027733;28;20212;-82
2022/04/16 05:59:00;;;;;;;3.10;2.87;;;10.20;99.90;;;;;;5029555;28;20470;-82
2022/04/16 06:01:26;;;;;;;5.33;3.40;;;10.40;99.90;;;;;;5046607;28;20450;-82
2022/04/16 06:03:53;;;;;;;4.63;3.10;;;10.60;99.90;;;;;;5029197;28;20473;-82
2022/04/16 06:06:20;;;;;;;4.40;3.90;;;10.70;99.90;;;;;;5027222;28;20547;-83
2022/04/16 06:08:47;;;;;;;3.72;3.42;;;10.70;99.90;;;;;;5043504;28;20457;-81
2022/04/16 06:11:17;;;;;;;4.03;3.70;;;10.90;99.90;;;;;;5028941;28;20212;-82
2022/04/16 06:13:44;;;;;;;4.70;3.70;;;10.90;99.90;;;;;;5041962;28;20464;-82
2022/04/16 06:16:12;;;;;;;3.53;3.23;;;11.00;99.90;;;;;;5047303;28;20451;-83
2022/04/16 06:18:39;;;;;;;4.13;3.80;;;11.20;99.40;;;;;;5042424;28;20461;-82
2022/04/16 06:21:06;;;;;;;3.17;2.97;;;11.10;98.80;;;;;;5023757;28;20460;-82
2022/04/16 06:23:32;;;;;;;3.70;3.40;;;11.00;99.20;;;;;;5021629;28;20471;-82
2022/04/16 06:25:59;;;;;;;3.30;3.10;;;11.00;99.20;;;;;;5031906;28;20456;-81
2022/04/16 06:28:26;;;;;;;3.57;3.27;;;11.00;99.30;;;;;;5040049;28;20473;-82
2022/04/16 06:30:53;;;;;;;4.27;4.03;;;10.60;99.10;;;;;;5033194;28;20456;-81
2022/04/16 06:33:21;;;;;;;4.33;3.90;;;10.40;99.60;;;;;;5021768;28;20495;-82
2022/04/16 06:35:48;;;;;;;3.93;3.30;;;10.50;99.80;;;;;;5029914;28;20456;-82
2022/04/16 06:38:14;;;;;;;5.07;4.10;;;10.50;99.80;;;;;;5042073;28;20452;-83
2022/04/16 06:40:41;;;;;;;3.80;3.50;;;10.50;99.90;;;;;;5029496;28;20464;-81
2022/04/16 06:43:08;;;;;;;3.87;3.53;;;10.60;99.90;;;;;;5022371;28;20471;-81
2022/04/16 06:45:35;;;;;;;4.40;4.00;;;10.60;99.90;;;;;;5032841;28;20479;-82
2022/04/16 06:48:02;;;;;;;4.00;3.70;;;10.50;99.80;;;;;;5038882;28;20475;-81
2022/04/16 06:50:30;;;;;;;4.17;3.87;;;10.60;99.50;;;;;;5024394;28;20459;-82
2022/04/16 06:52:57;;;;;;;3.60;3.30;;;10.70;99.30;;;;;;5030620;28;20490;-83
2022/04/16 06:55:24;;;;;;;4.57;4.17;;;10.50;99.10;;;;;;5046801;28;20459;-82
2022/04/16 06:57:51;;;;;;;3.77;3.47;;;10.60;99.40;;;;;;5043600;28;20448;-82
2022/04/16 07:00:18;;;;;;;5.43;4.50;;;10.70;99.20;;;;;;5026248;28;20823;-83
2022/04/16 07:02:45;;;;;;;5.30;4.07;;;10.60;99.10;;;;;;5026735;28;20448;-82
2022/04/16 07:05:11;;;;;;;3.03;2.83;;;10.70;99.20;;;;;;5041878;28;20991;-83
2022/04/16 07:07:40;;;;;;;4.10;3.80;;;10.70;99.30;;;;;;5038691;28;20457;-82
2022/04/16 07:10:08;;;;;;;5.27;4.40;;;10.70;99.00;;;;;;5026211;28;20440;-86
2022/04/16 07:12:34;;;;;;;4.13;3.80;;;10.60;98.80;;;;;;5024677;28;20480;-86
2022/04/16 07:15:01;;;;;;;4.13;3.70;;;10.70;98.90;;;;;;5023352;28;20458;-86
2022/04/16 07:17:28;;;;;;;6.00;5.70;;;10.80;98.50;;;;;;5023491;28;20973;-86
2022/04/16 07:19:55;;;;;;;4.70;3.43;;;10.80;98.70;;;;;;5024660;28;20486;-86
2022/04/16 07:22:22;;;;;;;4.57;4.20;;;10.90;98.70;;;;;;5024271;28;20516;-86
2022/04/16 07:24:51;;;;;;;4.20;3.77;;;10.90;98.60;;;;;;5023413;28;20486;-86
2022/04/16 07:27:17;;;;;;;4.40;4.00;;;11.00;98.50;;;;;;5023162;28;20460;-86
2022/04/16 07:29:46;;;;;;;4.03;3.63;;;11.10;98.50;;;;;;5027397;28;21042;-86
2022/04/16 07:32:12;;;;;;;3.17;2.53;;;11.20;97.90;;;;;;5017579;28;20548;-86
2022/04/16 07:34:45;;;;;;;4.57;4.20;;;11.20;97.90;;;;;;4999463;28;20472;-85
2022/04/16 07:37:11;;;;;;;5.63;4.67;;;11.20;98.00;;;;;;5007468;28;20528;-85
2022/04/16 07:39:40;;;;;;;4.90;4.40;;;11.30;97.90;;;;;;5005158;28;20453;-86
2022/04/16 07:42:08;;;;;;;5.63;5.20;;;11.30;97.70;;;;;;4996844;28;20461;-86
2022/04/16 07:44:36;;;;;;;4.53;4.13;;;11.50;97.50;;;;;;5004271;28;20504;-85
2022/04/16 07:47:02;;;;;;;5.27;4.33;;;11.40;97.70;;;;;;5000979;28;20417;-86
2022/04/16 07:49:29;;;;;;;5.07;4.57;;;11.50;97.70;;;;;;5001615;28;20453;-86
2022/04/16 07:51:56;;;;;;;4.87;4.47;;;11.50;97.50;;;;;;5016577;28;20444;-85
2022/04/16 07:54:23;;;;;;;5.17;4.63;;;11.50;97.40;;;;;;5010531;28;20469;-85
2022/04/16 07:56:49;;;;;;;5.73;5.13;;;11.60;97.30;;;;;;4997581;28;20454;-85
2022/04/16 07:59:17;;;;;;;5.77;5.13;;;11.50;97.30;;;;;;4997368;28;20924;-85
2022/04/16 08:01:44;;;;;;;5.50;5.00;;;11.70;97.40;;;;;;5008436;28;20472;-84
2022/04/16 08:04:11;;;;;;;4.30;3.90;;;11.70;97.10;;;;;;4997493;28;20447;-84
2022/04/16 08:06:38;;;;;;;5.50;5.07;;;11.70;97.10;;;;;;5008737;28;20444;-84
2022/04/16 08:09:04;;;;;;;6.23;4.83;;;11.70;97.20;;;;;;5016758;28;20467;-84
2022/04/16 08:11:32;;;;;;;7.47;5.23;;;11.80;97.00;;;;;;5035320;28;20460;-85
2022/04/16 08:13:59;;;;;;;5.80;5.30;;;11.80;97.00;;;;;;5029260;28;20991;-84
2022/04/16 08:16:27;;;;;;;5.30;4.80;;;12.00;97.20;;;;;;5010431;28;20824;-85
2022/04/16 08:18:54;;;;;;;7.27;6.63;;;12.20;96.90;;;;;;5003782;28;20489;-86
2022/04/16 08:21:21;;;;;;;5.17;4.77;;;12.30;96.60;;;;;;5004990;28;20465;-86
2022/04/16 08:24:03;;;;;;;6.53;5.10;;;12.40;96.60;;;;;;5018965;28;20480;-86
2022/04/16 08:26:30;;;;;;;5.70;5.20;;;12.50;96.30;;;;;;5031628;28;20441;-86
2022/04/16 08:28:57;;;;;;;6.17;5.60;;;12.50;96.10;;;;;;5027421;28;20493;-85
2022/04/16 08:31:23;;;;;;;6.87;6.03;;;12.70;96.00;;;;;;5030156;28;20467;-86
2022/04/16 08:33:52;;;;;;;5.63;4.60;;;12.50;95.60;;;;;;5026647;28;20499;-82
2022/04/16 08:36:28;;;;;;;5.10;4.60;;;12.60;96.00;;;;;;5039209;28;20455;-86
2022/04/16 08:39:00;;;;;;;7.60;5.97;;;12.60;96.00;;;;;;5031998;28;20464;-86
2022/04/16 08:41:27;;;;;;;7.63;5.50;;;12.80;96.00;;;;;;5033206;28;20457;-87
2022/04/16 08:44:00;;;;;;;6.80;6.20;;;13.00;96.00;;;;;;5008196;28;20477;-87
2022/04/16 08:46:31;;;;;;;5.77;5.10;;;13.30;95.60;;;;;;5015313;28;20548;-88
2022/04/16 08:49:02;;;;;;;5.20;4.67;;;13.50;95.10;;;;;;5019789;28;22551;-89
2022/04/16 08:51:30;;;;;;;5.60;5.10;;;13.50;95.00;;;;;;5033799;28;20438;-87
2022/04/16 08:53:57;;;;;;;6.83;5.70;;;13.60;94.70;;;;;;5019313;28;20564;-86
2022/04/16 08:56:26;;;;;;;6.37;5.77;;;13.80;94.40;;;;;;5035969;28;20454;-86
2022/04/16 08:58:53;;;;;;;6.43;5.83;;;13.90;94.60;;;;;;5017475;28;20909;-85
2022/04/16 09:01:20;;;;;;;6.63;5.50;;;14.00;94.40;;;;;;5015502;28;20446;-86
2022/04/16 09:03:50;;;;;;;5.90;5.50;;;14.10;94.50;;;;;;5015878;28;20469;-86
2022/04/16 09:06:24;;;;;;;5.27;4.87;;;14.20;93.60;;;;;;5015446;28;20973;-86
2022/04/16 09:08:53;;;;;;;6.37;5.77;;;14.50;94.10;;;;;;5016041;28;20451;-86
2022/04/16 09:11:23;;;;;;;6.53;5.20;;;14.30;93.10;;;;;;5018220;28;20871;-86
2022/04/16 09:13:54;;;;;;;7.83;7.23;;;14.60;93.00;;;;;;5017496;28;20493;-87
2022/04/16 09:16:21;;;;;;;6.23;5.63;;;14.50;92.20;;;;;;5017344;28;20485;-87
2022/04/16 09:18:50;;;;;;;7.07;6.47;;;14.50;92.60;;;;;;5016730;28;20785;-86
2022/04/16 09:21:20;;;;;;;5.73;5.23;;;14.60;92.30;;;;;;5015617;28;20491;-87
2022/04/16 09:23:51;;;;;;;7.10;5.10;;;14.70;92.10;;;;;;5017267;28;20469;-87
2022/04/16 09:26:29;;;;;;;7.00;6.50;;;14.60;92.30;;;;;;5015953;28;20859;-85
2022/04/16 09:28:56;;;;;;;6.37;5.77;;;14.70;92.10;;;;;;5014599;28;20455;-87
2022/04/16 09:31:29;;;;;;;5.80;5.13;;;14.70;92.20;;;;;;5014475;28;20988;-85
2022/04/16 09:33:56;;;;;;;6.50;5.13;;;14.50;92.50;;;;;;5015314;28;20847;-85
2022/04/16 09:36:28;;;;;;;7.00;5.70;;;14.40;92.10;;;;;;5016223;28;20834;-87
2022/04/16 09:39:03;;;;;;;7.63;6.87;;;14.30;92.40;;;;;;5015168;28;20454;-85
2022/04/16 09:41:34;;;;;;;6.37;5.73;;;14.30;92.90;;;;;;5015201;28;20456;-85
2022/04/16 09:44:01;;;;;;;7.07;6.43;;;13.90;92.50;;;;;;5015007;28;20485;-85
2022/04/16 09:46:29;;;;;;;7.00;6.20;;;13.80;93.20;;;;;;5014843;28;20450;-85
2022/04/16 09:49:02;;;;;;;7.80;6.83;;;13.70;93.90;;;;;;5015165;28;20454;-85
2022/04/16 09:51:32;;;;;;;6.93;6.27;;;13.70;93.40;;;;;;5014066;28;20873;-85
2022/04/16 09:53:59;;;;;;;8.37;6.40;;;13.70;93.70;;;;;;5014623;28;20492;-85
2022/04/16 09:56:29;;;;;;;7.20;6.47;;;13.80;93.90;;;;;;5014687;28;20435;-85
2022/04/16 09:58:58;;;;;;;7.87;7.10;;;14.00;93.60;;;;;;5015035;28;20431;-85
2022/04/16 10:01:25;;;;;;;7.50;6.30;;;14.10;93.10;;;;;;5026815;28;20460;-85
2022/04/16 10:03:52;;;;;;;7.50;6.87;;;14.30;92.70;;;;;;5024493;28;20477;-85
2022/04/16 10:06:21;;;;;;;6.33;5.73;;;14.20;92.20;;;;;;5018440;28;20449;-85
2022/04/16 10:08:49;;;;;;;7.77;6.30;;;14.30;92.40;;;;;;5016494;28;20438;-85
2022/04/16 10:11:21;;;;;;;6.60;5.90;;;14.30;92.00;;;;;;5016926;28;20469;-84
2022/04/16 10:13:57;;;;;;;6.30;5.67;;;14.20;92.10;;;;;;5013977;28;20853;-83
2022/04/16 10:16:32;;;;;;;6.60;6.07;;;14.30;92.30;;;;;;5014062;28;20489;-83
2022/04/16 10:18:59;;;;;;;7.73;7.00;;;14.40;92.20;;;;;;5017735;28;20450;-83
2022/04/16 10:21:33;;;;;;;7.80;7.10;;;14.50;92.10;;;;;;5014643;28;20438;-83
2022/04/16 10:24:01;;;;;;;6.90;6.30;;;14.70;91.90;;;;;;5013350;28;20477;-85
2022/04/16 10:26:38;;;;;;;5.50;5.03;;;15.00;91.90;;;;;;5013774;28;20506;-83
2022/04/16 10:29:06;;;;;;;6.10;5.50;;;15.10;90.90;;;;;;5008192;28;20481;-83
2022/04/16 10:31:56;;;;;;;6.00;5.50;;;15.10;90.20;;;;;;5014366;28;20440;-86
2022/04/16 10:34:31;;;;;;;6.60;5.90;;;15.00;89.40;;;;;;5014805;28;20491;-83
2022/04/16 10:44:40;;;;;;;7.10;5.93;;;15.00;89.30;;;;;;4920528;29;20937;-86
2022/04/16 10:50:39;;;;;;;8.20;5.60;;;15.20;88.10;;;;;;5009216;28;20947;-84
2022/04/16 10:53:06;;;;;;;6.50;5.83;;;15.30;88.30;;;;;;5014206;28;20970;-84
2022/04/16 10:55:36;;;;;;;6.73;6.10;;;15.30;89.00;;;;;;5017833;28;20466;-84
2022/04/16 10:58:05;;;;;;;7.53;6.90;;;15.40;88.70;;;;;;5006761;28;20484;-82
2022/04/16 11:00:40;;;;;;;6.90;6.33;;;15.20;86.80;;;;;;5006455;28;20846;-84
2022/04/16 11:03:10;;;;;;;6.17;5.40;;;14.70;88.00;;;;;;5014081;28;20477;-85
2022/04/16 11:05:37;;;;;;;7.03;6.33;;;14.70;88.10;;;;;;5022865;28;20925;-85
2022/04/16 11:08:06;;;;;;;6.13;5.63;;;14.50;88.60;;;;;;5033900;28;20592;-84
2022/04/16 11:10:33;;;;;;;7.03;6.33;;;14.70;89.80;;;;;;5024812;28;20529;-84
2022/04/16 11:13:01;;;;;;;5.87;5.20;;;14.50;88.30;;;;;;5014603;28;20479;-84
2022/04/16 11:15:41;;;;;;;6.03;5.47;;;14.70;89.30;;;;;;5022443;28;20487;-86
2022/04/16 11:18:11;;;;;;;8.67;6.80;;;14.90;90.00;;;;;;5040272;28;20488;-85
2022/04/16 11:20:39;;;;;;;7.10;6.53;;;15.10;88.30;;;;;;5024320;28;20458;-85
2022/04/16 11:23:10;;;;;;;7.03;6.43;;;15.10;86.30;;;;;;5017520;28;20471;-85
2022/04/16 11:34:18;;;;;;;4.83;4.40;;;16.20;83.10;;;;;;5032372;28;20491;-85
2022/04/16 11:36:49;;;;;;;6.00;5.17;;;16.40;82.50;;;;;;5018745;28;20900;-85
2022/04/16 11:39:20;;;;;;;5.50;5.00;;;16.40;80.70;;;;;;5024337;28;20505;-83
2022/04/16 11:41:51;;;;;;;4.43;3.60;;;16.40;79.60;;;;;;5021317;28;20456;-85
2022/04/16 11:44:18;;;;;;;3.93;3.60;;;16.60;80.00;;;;;;5032866;28;20524;-85
2022/04/16 11:46:44;;;;;;;4.10;3.80;;;16.90;78.40;;;;;;5043286;28;20464;-85
2022/04/16 11:49:13;;;;;;;5.10;4.70;;;17.20;77.20;;;;;;5023934;28;20556;-85
2022/04/16 11:51:40;;;;;;;5.60;5.20;;;17.30;76.20;;;;;;5016582;28;20452;-85
2022/04/16 11:54:16;;;;;;;5.87;5.20;;;17.20;74.50;;;;;;5029446;28;20496;-86
2022/04/16 11:56:51;;;;;;;5.63;5.07;;;16.50;75.00;;;;;;5051234;28;20462;-87
2022/04/16 11:59:23;;;;;;;5.10;4.70;;;16.40;76.60;;;;;;5007315;28;20466;-85
2022/04/16 12:01:57;;;;;;;4.67;4.13;;;16.40;77.50;;;;;;5043180;28;20500;-81
2022/04/16 12:04:35;;;;;;;5.63;5.03;;;15.60;75.70;;;;;;5008753;28;20467;-85
2022/04/16 12:07:02;;;;;;;6.23;5.63;;;15.80;78.30;;;;;;5031200;28;20459;-84
2022/04/16 12:09:32;;;;;;;5.13;4.67;;;15.70;77.60;;;;;;5040898;28;20833;-85
2022/04/16 12:12:23;;;;;;;4.10;3.60;;;16.00;77.80;;;;;;5024807;28;20447;-88
2022/04/16 12:14:51;;;;;;;6.00;5.30;;;17.10;79.40;;;;;;5016668;28;20488;-84
2022/04/16 12:17:24;;;;;;;5.93;5.43;;;18.20;75.40;;;;;;5029912;28;20464;-86
2022/04/16 12:20:01;;;;;;;5.47;5.03;;;19.00;71.20;;;;;;5027201;28;20457;-85
2022/04/16 12:22:28;;;;;;;5.00;4.60;;;18.90;67.40;;;;;;5017024;28;20445;-85
2022/04/16 12:24:56;;;;;;;5.90;5.40;;;18.40;65.30;;;;;;5015980;28;20473;-86
2022/04/16 12:27:26;;;;;;;4.50;4.07;;;18.80;66.40;;;;;;5023763;28;20460;-86
2022/04/16 12:29:56;;;;;;;4.93;4.53;;;19.60;68.70;;;;;;5039251;28;20455;-85
2022/04/16 12:32:33;;;;;;;5.57;5.00;;;20.60;63.10;;;;;;5038906;28;20451;-87
2022/04/16 12:35:28;;;;;;;5.50;4.43;;;21.90;60.10;;;;;;5037228;28;20534;-87
2022/04/16 12:37:55;;;;;;;6.60;4.87;;;22.80;56.50;;;;;;5014911;28;20453;-83
2022/04/16 12:40:22;;;;;;;5.20;4.77;;;22.70;54.00;;;;;;5018388;28;20458;-84
2022/04/16 12:42:49;;;;;;;4.60;4.20;;;22.30;53.00;;;;;;5017555;28;20443;-86
2022/04/16 12:45:16;;;;;;;4.40;4.00;;;22.30;53.80;;;;;;5033325;28;20453;-84
2022/04/16 12:47:43;;;;;;;7.07;4.63;;;22.30;53.10;;;;;;5036751;28;20450;-85
2022/04/16 12:50:10;;;;;;;5.43;4.93;;;22.90;54.80;;;;;;5018821;28;20504;-84
2022/04/16 12:52:38;;;;;;;5.43;4.93;;;23.50;53.10;;;;;;5016768;28;20950;-83
2022/04/16 12:55:07;;;;;;;6.00;4.63;;;24.40;51.30;;;;;;5017467;28;20858;-85
2022/04/16 12:57:34;;;;;;;4.80;4.50;;;25.20;49.70;;;;;;5018283;28;20450;-84
2022/04/16 13:00:01;;;;;;;5.37;4.87;;;25.00;46.70;;;;;;5035168;28;20457;-85
2022/04/16 13:02:28;;;;;;;6.00;5.40;;;24.80;47.40;;;;;;5035124;28;20453;-84
2022/04/16 13:04:55;;;;;;;5.07;4.57;;;24.90;47.10;;;;;;5039043;28;20565;-85
2022/04/16 13:07:22;;;;;;;6.80;5.20;;;25.30;47.30;;;;;;5034646;28;20469;-84
2022/04/16 13:09:50;;;;;;;4.93;4.53;;;25.80;46.20;;;;;;5024576;28;20453;-83
2022/04/16 13:12:18;;;;;;;5.67;5.23;;;26.10;44.70;;;;;;5027092;28;20458;-84
2022/04/16 13:14:46;;;;;;;5.20;4.80;;;25.40;44.80;;;;;;5032921;28;20881;-84
2022/04/16 13:17:13;;;;;;;5.23;4.73;;;25.80;44.90;;;;;;5022005;28;21006;-84
2022/04/16 13:19:41;;;;;;;4.50;4.10;;;25.80;44.10;;;;;;5032217;28;20459;-85
2022/04/16 13:22:08;;;;;;;5.40;4.90;;;25.70;43.90;;;;;;5032048;28;20480;-84
2022/04/16 13:24:35;;;;;;;4.70;4.30;;;25.70;44.00;;;;;;5035530;28;20495;-86
2022/04/16 13:27:05;;;;;;;5.47;5.07;;;25.50;43.10;;;;;;5036437;28;20460;-84
2022/04/16 13:29:32;;;;;;;5.77;5.20;;;25.60;43.40;;;;;;5036255;28;20456;-84
2022/04/16 13:31:59;;;;;;;5.10;4.70;;;25.50;43.70;;;;;;5020624;28;20458;-86
2022/04/16 13:34:26;;;;;;;4.87;4.37;;;25.10;43.50;;;;;;5028058;28;20476;-86
2022/04/16 13:36:53;;;;;;;5.10;4.60;;;24.00;43.00;;;;;;5033393;28;20449;-84
2022/04/16 13:42:06;;;;;;;4.20;3.90;;;23.50;45.40;;;;;;5017865;28;20440;-84
2022/04/16 13:44:33;;;;;;;4.70;4.30;;;24.30;44.70;;;;;;5017370;28;20486;-85
2022/04/16 13:47:09;;;;;;;6.43;5.17;;;24.00;42.20;;;;;;5018142;28;20964;-86
2022/04/16 13:49:36;;;;;;;4.10;3.80;;;23.70;43.30;;;;;;5015992;28;20456;-86
2022/04/16 13:52:04;;;;;;;4.83;4.33;;;23.50;43.40;;;;;;5015779;28;21006;-86
2022/04/16 13:54:34;;;;;;;4.00;3.70;;;23.50;44.10;;;;;;5016797;28;20501;-87
2022/04/16 13:57:01;;;;;;;4.43;4.03;;;24.30;44.70;;;;;;5020721;28;20461;-87
2022/04/16 13:59:29;;;;;;;5.33;4.60;;;25.30;42.80;;;;;;5015303;28;20585;-86
2022/04/16 14:01:57;;;;;;;5.97;5.50;;;26.10;40.60;;;;;;5017560;28;20553;-86
2022/04/16 14:04:24;;;;;;;4.07;3.77;;;26.80;39.00;;;;;;5018079;28;20498;-84
2022/04/16 14:06:51;;;;;;;5.47;5.00;;;27.40;38.50;;;;;;5014994;28;20457;-86
2022/04/16 14:09:18;;;;;;;5.33;4.90;;;27.30;37.10;;;;;;5020514;28;20948;-86
2022/04/16 14:11:46;;;;;;;5.57;5.07;;;27.40;38.10;;;;;;5028500;28;20451;-88
2022/04/16 14:14:13;;;;;;;4.67;4.33;;;27.40;36.70;;;;;;5014821;28;20808;-87
2022/04/16 14:16:42;;;;;;;5.53;4.50;;;27.60;37.10;;;;;;5014636;28;20455;-86
2022/04/16 14:19:10;;;;;;;5.03;4.63;;;26.20;37.30;;;;;;5014542;28;20481;-87
2022/04/16 14:21:37;;;;;;;4.33;3.93;;;26.00;38.20;;;;;;5013992;28;20488;-86
2022/04/16 14:24:05;;;;;;;3.87;3.57;;;25.50;38.00;;;;;;5014239;28;20499;-86
2022/04/16 14:26:31;;;;;;;4.93;4.50;;;25.10;38.30;;;;;;5014393;28;20481;-85
2022/04/16 14:28:58;;;;;;;4.03;3.73;;;24.80;38.70;;;;;;5014318;28;20458;-84
2022/04/16 14:31:25;;;;;;;3.60;3.30;;;25.10;39.50;;;;;;5014301;28;20455;-86
2022/04/16 14:33:53;;;;;;;4.77;4.37;;;25.50;38.10;;;;;;5014019;28;20483;-86
2022/04/16 14:36:20;;;;;;;4.50;4.10;;;25.60;37.20;;;;;;5014093;28;20466;-87
2022/04/16 14:38:47;;;;;;;4.57;4.07;;;25.80;37.40;;;;;;5014546;28;20471;-86
2022/04/16 14:41:15;;;;;;;3.97;3.67;;;26.30;37.50;;;;;;5014116;28;20498;-86
2022/04/16 14:43:48;;;;;;;4.40;4.10;;;26.90;36.80;;;;;;5014887;28;20566;-87
2022/04/16 14:46:14;;;;;;;4.50;3.80;;;27.20;36.20;;;;;;5014879;28;20503;-86
2022/04/16 14:48:41;;;;;;;4.00;3.70;;;27.90;36.30;;;;;;5015733;28;20455;-86
2022/04/16 14:51:10;;;;;;;4.00;3.70;;;28.50;34.50;;;;;;5015842;28;20461;-86
2022/04/16 14:53:37;;;;;;;4.03;3.63;;;29.20;34.10;;;;;;5016423;28;20477;-87
2022/04/16 14:56:04;;;;;;;4.33;3.93;;;29.30;33.10;;;;;;5015409;28;20461;-86
2022/04/16 14:58:31;;;;;;;4.47;4.07;;;28.50;32.50;;;;;;5014234;28;20467;-85
2022/04/16 15:01:00;;;;;;;4.03;3.63;;;26.90;32.80;;;;;;5013953;28;20486;-86
2022/04/16 15:03:27;;;;;;;4.20;3.87;;;26.10;35.40;;;;;;5014600;28;20479;-86
2022/04/16 15:05:53;;;;;;;3.93;3.60;;;25.50;36.40;;;;;;5014305;28;20494;-87
2022/04/16 15:08:21;;;;;;;3.60;3.37;;;25.40;36.40;;;;;;5014536;28;20455;-87
2022/04/16 15:10:48;;;;;;;3.93;3.50;;;25.70;35.80;;;;;;5014597;28;20455;-86
2022/04/16 15:13:15;;;;;;;3.60;3.30;;;26.00;37.00;;;;;;5014749;28;20469;-87
2022/04/16 15:15:42;;;;;;;3.90;3.50;;;26.40;36.20;;;;;;5014635;28;20450;-86
2022/04/16 15:18:08;;;;;;;3.80;3.50;;;25.90;36.40;;;;;;5014367;28;20456;-87
2022/04/16 15:20:38;;;;;;;3.43;3.13;;;25.40;36.00;;;;;;5014171;28;20451;-86
2022/04/16 15:23:05;;;;;;;3.67;3.47;;;24.90;36.40;;;;;;5014253;28;20492;-87
2022/04/16 15:25:33;;;;;;;3.50;3.30;;;25.40;37.80;;;;;;5014293;28;20559;-86
2022/04/16 15:28:01;;;;;;;3.30;3.10;;;25.80;37.10;;;;;;5016410;28;20536;-85
2022/04/16 15:30:28;;;;;;;2.83;2.63;;;25.70;35.60;;;;;;5017535;28;20465;-86
2022/04/16 15:32:55;;;;;;;3.23;2.93;;;26.20;35.50;;;;;;5017655;28;20468;-86
2022/04/16 15:35:24;;;;;;;3.40;2.80;;;26.30;34.90;;;;;;5017769;28;20456;-85
2022/04/16 15:37:51;;;;;;;3.70;3.30;;;26.20;35.30;;;;;;5017867;28;20978;-84
2022/04/16 15:40:19;;;;;;;4.03;3.43;;;26.10;34.90;;;;;;5017440;28;20962;-85
2022/04/16 15:42:47;;;;;;;3.07;2.87;;;26.00;35.20;;;;;;5017599;28;20447;-85
2022/04/16 15:45:15;;;;;;;3.10;2.90;;;26.40;34.90;;;;;;5018007;28;20522;-86
2022/04/16 15:47:42;;;;;;;2.83;2.63;;;26.70;34.30;;;;;;5017748;28;20923;-86
2022/04/16 15:50:10;;;;;;;3.37;3.17;;;26.10;33.40;;;;;;5016835;28;20449;-87
2022/04/16 15:52:36;;;;;;;2.87;2.67;;;25.40;34.00;;;;;;5017489;28;20452;-86
2022/04/16 15:55:04;;;;;;;4.00;3.60;;;25.30;34.20;;;;;;5017492;28;20815;-86
2022/04/16 15:57:30;;;;;;;3.00;2.70;;;25.50;34.20;;;;;;5017429;28;20458;-85
2022/04/16 15:59:59;;;;;;;3.47;3.17;;;25.70;34.30;;;;;;5017092;28;20471;-87
2022/04/16 16:02:25;;;;;;;2.97;2.77;;;25.60;32.40;;;;;;5017287;28;20449;-87
2022/04/16 16:05:00;;;;;;;3.90;3.50;;;26.10;32.60;;;;;;5017070;28;20515;-86
2022/04/16 16:07:29;;;;;;;3.80;3.50;;;26.20;32.10;;;;;;5017345;28;20476;-85
2022/04/16 16:09:57;;;;;;;3.30;3.10;;;26.20;31.60;;;;;;5016935;28;20457;-85
2022/04/16 16:12:24;;;;;;;3.43;3.13;;;26.40;32.10;;;;;;5017156;28;20461;-86
2022/04/16 16:14:51;;;;;;;3.27;3.07;;;25.90;31.10;;;;;;5017114;28;20480;-86
2022/04/16 16:17:19;;;;;;;3.43;3.23;;;26.20;31.50;;;;;;5017281;28;20815;-86
2022/04/16 16:19:46;;;;;;;3.20;2.90;;;25.80;31.00;;;;;;5016853;28;20453;-86
2022/04/16 16:22:13;;;;;;;2.57;2.37;;;25.50;31.90;;;;;;5016293;28;20466;-86
2022/04/16 16:24:40;;;;;;;3.47;3.17;;;25.70;31.90;;;;;;5016812;28;20479;-86
2022/04/16 16:27:07;;;;;;;3.40;3.10;;;25.70;31.90;;;;;;5016846;28;20516;-85
2022/04/16 16:29:34;;;;;;;3.33;3.13;;;25.70;31.00;;;;;;5016204;28;20498;-86
2022/04/16 16:32:01;;;;;;;4.10;3.80;;;25.40;31.40;;;;;;5016022;28;20461;-85
2022/04/16 16:34:29;;;;;;;4.00;3.70;;;24.80;31.30;;;;;;5016623;28;20474;-86
2022/04/16 16:36:56;;;;;;;4.67;3.63;;;24.60;31.80;;;;;;5016211;28;20451;-86
2022/04/16 16:39:22;;;;;;;2.90;2.70;;;24.60;32.30;;;;;;5016232;28;20446;-86
2022/04/16 16:41:49;;;;;;;2.50;2.40;;;24.50;31.80;;;;;;5016328;28;20464;-87